RYR5WR LIBD-LIMJ
Flight info
| Callsign | RYR5WR |
|---|---|
| Flight time | 1h 12m |
| Altitude | 36000 |
| Route | PISIP DCT VIE DCT RUPAX DCT LOMED DCT BEROK M730 KALMO |
| Aircraft | B738/M-SDE2E3FGHIRWXY/LB1 |
Departure
| Time | 2026-04-28 10:54 |
|---|---|
| Airport | Bari Karol Wojtyła International Airport (LIBD) |
Arrival
| Time | 2026-04-28 12:07 |
|---|---|
| Airport | Genoa Cristoforo Colombo Airport (LIMJ) |
| Time | Latitude | Longitude | Altitude | Speed | Heading |
|---|---|---|---|---|---|
| 2026-04-28 10:34 | 41.13577 | 16.76512 | 135 ft | 0 kts | 159° |
| 2026-04-28 10:45 | 41.13586 | 16.76507 | 135 ft | 4 kts | 162° |
| 2026-04-28 10:45 | 41.13613 | 16.76499 | 135 ft | 4 kts | 177° |
| 2026-04-28 10:46 | 41.13638 | 16.76503 | 135 ft | 4 kts | 205° |
| 2026-04-28 10:46 | 41.13654 | 16.76519 | 135 ft | 1 kts | 247° |
| 2026-04-28 10:46 | 41.13656 | 16.76525 | 135 ft | 0 kts | 247° |
| 2026-04-28 10:48 | 41.13656 | 16.76524 | 135 ft | 0 kts | 247° |
| 2026-04-28 10:48 | 41.13649 | 16.76502 | 135 ft | 6 kts | 247° |
| 2026-04-28 10:48 | 41.13624 | 16.76414 | 135 ft | 14 kts | 249° |
| 2026-04-28 10:49 | 41.13585 | 16.76279 | 135 ft | 17 kts | 249° |
| 2026-04-28 10:49 | 41.13552 | 16.76132 | 135 ft | 14 kts | 280° |
| 2026-04-28 10:49 | 41.13624 | 16.76037 | 135 ft | 16 kts | 312° |
| 2026-04-28 10:49 | 41.13620 | 16.75902 | 135 ft | 16 kts | 249° |
| 2026-04-28 10:50 | 41.13581 | 16.75766 | 137 ft | 16 kts | 249° |
| 2026-04-28 10:50 | 41.13540 | 16.75619 | 137 ft | 18 kts | 250° |
| 2026-04-28 10:50 | 41.13496 | 16.75467 | 142 ft | 17 kts | 249° |
| 2026-04-28 10:50 | 41.13451 | 16.75307 | 141 ft | 20 kts | 249° |
| 2026-04-28 10:51 | 41.13403 | 16.75134 | 145 ft | 20 kts | 249° |
| 2026-04-28 10:51 | 41.13352 | 16.74959 | 147 ft | 21 kts | 249° |
| 2026-04-28 10:51 | 41.13298 | 16.74765 | 147 ft | 23 kts | 249° |
| 2026-04-28 10:51 | 41.13240 | 16.74563 | 151 ft | 23 kts | 250° |
| 2026-04-28 10:52 | 41.13185 | 16.74365 | 153 ft | 23 kts | 250° |
| 2026-04-28 10:52 | 41.13183 | 16.74216 | 149 ft | 12 kts | 306° |
| 2026-04-28 10:52 | 41.13195 | 16.74184 | 148 ft | 0 kts | 295° |
| 2026-04-28 10:52 | 41.13197 | 16.74180 | 147 ft | 2 kts | 295° |
| 2026-04-28 10:53 | 41.13211 | 16.74141 | 146 ft | 8 kts | 298° |
| 2026-04-28 10:53 | 41.13270 | 16.74095 | 144 ft | 12 kts | 360° |
| 2026-04-28 10:53 | 41.13329 | 16.74210 | 146 ft | 27 kts | 69° |
| 2026-04-28 10:53 | 41.13482 | 16.74752 | 139 ft | 98 kts | 69° |
| 2026-04-28 10:54 | 41.13794 | 16.75850 | 137 ft | 155 kts | 69° |
| 2026-04-28 10:54 | 41.14205 | 16.77350 | 496 ft | 178 kts | 71° |
| 2026-04-28 10:54 | 41.14630 | 16.78890 | 1409 ft | 177 kts | 70° |
| 2026-04-28 10:54 | 41.15102 | 16.80475 | 1971 ft | 196 kts | 69° |
| 2026-04-28 10:55 | 41.15629 | 16.82270 | 2189 ft | 220 kts | 70° |
| 2026-04-28 10:55 | 41.16204 | 16.84263 | 2400 ft | 240 kts | 70° |
| 2026-04-28 10:55 | 41.16825 | 16.86420 | 2592 ft | 259 kts | 70° |
| 2026-04-28 10:55 | 41.17469 | 16.88655 | 3254 ft | 259 kts | 70° |
| 2026-04-28 10:56 | 41.18284 | 16.90785 | 4001 ft | 262 kts | 50° |
| 2026-04-28 10:56 | 41.19760 | 16.92176 | 4794 ft | 266 kts | 19° |
| 2026-04-28 10:56 | 41.21613 | 16.92384 | 5360 ft | 274 kts | 350° |
| 2026-04-28 10:56 | 41.23483 | 16.91778 | 6043 ft | 278 kts | 343° |
| 2026-04-28 10:57 | 41.25351 | 16.91051 | 6809 ft | 280 kts | 343° |
| 2026-04-28 10:57 | 41.27234 | 16.90327 | 7491 ft | 283 kts | 344° |
| 2026-04-28 10:57 | 41.29128 | 16.89616 | 8270 ft | 283 kts | 343° |
| 2026-04-28 10:57 | 41.31036 | 16.88910 | 9009 ft | 285 kts | 344° |
| 2026-04-28 10:58 | 41.32950 | 16.88205 | 9766 ft | 286 kts | 344° |
| 2026-04-28 10:58 | 41.34884 | 16.87495 | 10384 ft | 292 kts | 344° |
| 2026-04-28 10:58 | 41.36912 | 16.86730 | 10565 ft | 314 kts | 340° |
| 2026-04-28 10:58 | 41.38819 | 16.85188 | 10703 ft | 333 kts | 315° |
| 2026-04-28 10:59 | 41.40414 | 16.82857 | 10972 ft | 348 kts | 310° |
| 2026-04-28 10:59 | 41.41999 | 16.80410 | 11429 ft | 357 kts | 310° |
| 2026-04-28 10:59 | 41.43626 | 16.77890 | 12064 ft | 359 kts | 310° |
| 2026-04-28 10:59 | 41.45289 | 16.75332 | 12760 ft | 362 kts | 310° |
| 2026-04-28 11:00 | 41.46925 | 16.72832 | 13399 ft | 365 kts | 310° |
| 2026-04-28 11:00 | 41.48610 | 16.70269 | 14036 ft | 369 kts | 310° |
| 2026-04-28 11:00 | 41.50310 | 16.67688 | 14680 ft | 371 kts | 311° |
| 2026-04-28 11:00 | 41.52020 | 16.65093 | 15374 ft | 373 kts | 310° |
| 2026-04-28 11:01 | 41.53729 | 16.62496 | 16052 ft | 374 kts | 310° |
| 2026-04-28 11:01 | 41.55460 | 16.59867 | 16701 ft | 377 kts | 310° |
| 2026-04-28 11:01 | 41.57198 | 16.57227 | 17347 ft | 380 kts | 310° |
| 2026-04-28 11:01 | 41.58946 | 16.54567 | 17995 ft | 382 kts | 310° |
| 2026-04-28 11:02 | 41.60701 | 16.51895 | 18592 ft | 384 kts | 310° |
| 2026-04-28 11:02 | 41.62473 | 16.49195 | 19123 ft | 387 kts | 310° |
| 2026-04-28 11:02 | 41.64252 | 16.46480 | 19635 ft | 390 kts | 310° |
| 2026-04-28 11:02 | 41.66051 | 16.43733 | 20152 ft | 394 kts | 310° |
| 2026-04-28 11:03 | 41.67854 | 16.40977 | 20665 ft | 396 kts | 310° |
| 2026-04-28 11:03 | 41.69683 | 16.38180 | 21171 ft | 399 kts | 310° |
| 2026-04-28 11:03 | 41.71512 | 16.35379 | 21664 ft | 402 kts | 310° |
| 2026-04-28 11:03 | 41.73363 | 16.32540 | 22107 ft | 406 kts | 310° |
| 2026-04-28 11:04 | 41.75229 | 16.29678 | 22561 ft | 409 kts | 310° |
| 2026-04-28 11:04 | 41.77108 | 16.26792 | 23042 ft | 412 kts | 310° |
| 2026-04-28 11:04 | 41.78997 | 16.23887 | 23518 ft | 415 kts | 310° |
| 2026-04-28 11:04 | 41.80900 | 16.20960 | 23915 ft | 417 kts | 310° |
| 2026-04-28 11:05 | 41.82808 | 16.18020 | 24307 ft | 420 kts | 310° |
| 2026-04-28 11:05 | 41.84731 | 16.15055 | 24707 ft | 422 kts | 310° |
| 2026-04-28 11:05 | 41.86655 | 16.12084 | 25093 ft | 424 kts | 310° |
| 2026-04-28 11:05 | 41.88598 | 16.09083 | 25482 ft | 426 kts | 310° |
| 2026-04-28 11:06 | 41.90539 | 16.06082 | 25907 ft | 427 kts | 310° |
| 2026-04-28 11:06 | 41.92500 | 16.03077 | 26273 ft | 429 kts | 311° |
| 2026-04-28 11:06 | 41.94503 | 16.00098 | 26610 ft | 432 kts | 312° |
| 2026-04-28 11:06 | 41.96537 | 15.97114 | 26915 ft | 434 kts | 312° |
| 2026-04-28 11:07 | 41.98589 | 15.94111 | 27242 ft | 437 kts | 312° |
| 2026-04-28 11:07 | 42.00638 | 15.91102 | 27592 ft | 439 kts | 312° |
| 2026-04-28 11:07 | 42.02703 | 15.88060 | 27926 ft | 440 kts | 312° |
| 2026-04-28 11:07 | 42.04769 | 15.85006 | 28244 ft | 442 kts | 312° |
| 2026-04-28 11:08 | 42.06815 | 15.81972 | 28538 ft | 445 kts | 312° |
| 2026-04-28 11:08 | 42.08897 | 15.78881 | 28841 ft | 446 kts | 312° |
| 2026-04-28 11:08 | 42.10985 | 15.75777 | 29142 ft | 448 kts | 312° |
| 2026-04-28 11:08 | 42.13077 | 15.72662 | 29527 ft | 448 kts | 312° |
| 2026-04-28 11:09 | 42.15157 | 15.69562 | 30042 ft | 445 kts | 312° |
| 2026-04-28 11:09 | 42.19347 | 15.63311 | 30059 ft | 449 kts | 312° |
| 2026-04-28 11:10 | 42.23509 | 15.57085 | 30051 ft | 444 kts | 312° |
| 2026-04-28 11:10 | 42.27643 | 15.50892 | 30213 ft | 448 kts | 312° |
| 2026-04-28 11:10 | 42.29704 | 15.47727 | 30558 ft | 447 kts | 308° |
| 2026-04-28 11:11 | 42.30913 | 15.45481 | 30823 ft | 445 kts | 302° |
| 2026-04-28 11:11 | 42.32452 | 15.41875 | 31252 ft | 442 kts | 299° |
| 2026-04-28 11:11 | 42.33930 | 15.38258 | 31682 ft | 439 kts | 299° |
| 2026-04-28 11:11 | 42.35390 | 15.34662 | 32047 ft | 437 kts | 299° |
| 2026-04-28 11:12 | 42.36857 | 15.31054 | 32364 ft | 437 kts | 299° |
| 2026-04-28 11:12 | 42.38329 | 15.27454 | 32662 ft | 436 kts | 299° |
| 2026-04-28 11:12 | 42.39802 | 15.23866 | 32971 ft | 436 kts | 299° |
| 2026-04-28 11:12 | 42.41276 | 15.20286 | 33316 ft | 435 kts | 299° |
| 2026-04-28 11:13 | 42.42742 | 15.16732 | 33808 ft | 429 kts | 299° |
| 2026-04-28 11:13 | 42.44188 | 15.13225 | 34234 ft | 426 kts | 299° |
| 2026-04-28 11:13 | 42.45632 | 15.09722 | 34478 ft | 426 kts | 299° |
| 2026-04-28 11:13 | 42.47076 | 15.06214 | 34671 ft | 426 kts | 299° |
| 2026-04-28 11:14 | 42.48516 | 15.02711 | 34929 ft | 425 kts | 299° |
| 2026-04-28 11:14 | 42.49950 | 14.99217 | 35239 ft | 423 kts | 299° |
| 2026-04-28 11:14 | 42.51378 | 14.95737 | 35524 ft | 422 kts | 299° |
| 2026-04-28 11:14 | 42.52799 | 14.92267 | 35754 ft | 421 kts | 298° |
| 2026-04-28 11:15 | 42.54218 | 14.88797 | 35951 ft | 421 kts | 298° |
| 2026-04-28 11:15 | 42.55641 | 14.85314 | 36055 ft | 423 kts | 298° |
| 2026-04-28 11:15 | 42.57071 | 14.81809 | 36049 ft | 425 kts | 298° |
| 2026-04-28 11:16 | 42.59909 | 14.74842 | 36055 ft | 423 kts | 298° |
| 2026-04-28 11:16 | 42.62748 | 14.67857 | 36053 ft | 418 kts | 298° |
| 2026-04-28 11:17 | 42.65528 | 14.60998 | 36061 ft | 416 kts | 298° |
| 2026-04-28 11:17 | 42.68312 | 14.54115 | 36061 ft | 415 kts | 298° |
| 2026-04-28 11:18 | 42.71088 | 14.47235 | 36072 ft | 415 kts | 298° |
| 2026-04-28 11:18 | 42.73861 | 14.40344 | 36059 ft | 416 kts | 298° |
| 2026-04-28 11:19 | 42.76635 | 14.33437 | 36055 ft | 416 kts | 298° |
| 2026-04-28 11:19 | 42.79409 | 14.26511 | 36054 ft | 417 kts | 298° |
| 2026-04-28 11:20 | 42.82185 | 14.19565 | 36056 ft | 418 kts | 298° |
| 2026-04-28 11:20 | 42.84961 | 14.12602 | 36056 ft | 418 kts | 298° |
| 2026-04-28 11:21 | 42.87736 | 14.05624 | 36057 ft | 419 kts | 298° |
| 2026-04-28 11:21 | 42.90508 | 13.98637 | 36056 ft | 419 kts | 298° |
| 2026-04-28 11:22 | 42.93281 | 13.91629 | 36057 ft | 420 kts | 298° |
| 2026-04-28 11:22 | 42.96032 | 13.84663 | 36044 ft | 420 kts | 297° |
| 2026-04-28 11:23 | 42.98816 | 13.77594 | 36051 ft | 420 kts | 297° |
| 2026-04-28 11:23 | 43.01554 | 13.70623 | 36051 ft | 420 kts | 297° |
| 2026-04-28 11:24 | 43.04308 | 13.63596 | 36060 ft | 419 kts | 297° |
| 2026-04-28 11:24 | 43.07057 | 13.56564 | 36053 ft | 419 kts | 297° |
| 2026-04-28 11:25 | 43.09794 | 13.49547 | 36050 ft | 418 kts | 297° |
| 2026-04-28 11:25 | 43.12522 | 13.42534 | 36048 ft | 417 kts | 297° |
| 2026-04-28 11:26 | 43.15238 | 13.35535 | 36046 ft | 416 kts | 297° |
| 2026-04-28 11:26 | 43.17948 | 13.28536 | 36046 ft | 415 kts | 297° |
| 2026-04-28 11:27 | 43.20649 | 13.21542 | 36041 ft | 415 kts | 297° |
| 2026-04-28 11:27 | 43.23344 | 13.14546 | 36046 ft | 415 kts | 297° |
| 2026-04-28 11:28 | 43.26034 | 13.07544 | 36047 ft | 415 kts | 297° |
| 2026-04-28 11:28 | 43.28723 | 13.00529 | 36058 ft | 416 kts | 297° |
| 2026-04-28 11:29 | 43.31410 | 12.93502 | 36050 ft | 416 kts | 297° |
| 2026-04-28 11:29 | 43.34094 | 12.86467 | 36051 ft | 416 kts | 297° |
| 2026-04-28 11:30 | 43.36770 | 12.79432 | 36047 ft | 415 kts | 297° |
| 2026-04-28 11:30 | 43.40773 | 12.68877 | 36045 ft | 415 kts | 296° |
| 2026-04-28 11:31 | 43.43432 | 12.61845 | 36052 ft | 414 kts | 296° |
| 2026-04-28 11:31 | 43.46064 | 12.54867 | 36056 ft | 414 kts | 296° |
| 2026-04-28 11:32 | 43.48717 | 12.47814 | 36053 ft | 415 kts | 296° |
| 2026-04-28 11:32 | 43.51362 | 12.40767 | 36059 ft | 415 kts | 296° |
| 2026-04-28 11:33 | 43.54006 | 12.33703 | 36055 ft | 415 kts | 296° |
| 2026-04-28 11:33 | 43.56651 | 12.26619 | 36083 ft | 415 kts | 296° |
| 2026-04-28 11:34 | 43.59287 | 12.19542 | 36076 ft | 415 kts | 296° |
| 2026-04-28 11:34 | 43.61924 | 12.12446 | 36078 ft | 415 kts | 296° |
| 2026-04-28 11:35 | 43.63547 | 12.08066 | 36069 ft | 415 kts | 296° |
| 2026-04-28 11:35 | 43.65996 | 12.01448 | 36063 ft | 415 kts | 296° |
| 2026-04-28 11:36 | 43.68580 | 11.94448 | 36057 ft | 415 kts | 296° |
| 2026-04-28 11:36 | 43.70110 | 11.90294 | 36063 ft | 415 kts | 296° |
| 2026-04-28 11:37 | 43.72726 | 11.83177 | 36062 ft | 415 kts | 296° |
| 2026-04-28 11:37 | 43.75338 | 11.76053 | 36060 ft | 415 kts | 296° |
| 2026-04-28 11:38 | 43.77945 | 11.68924 | 36057 ft | 415 kts | 296° |
| 2026-04-28 11:38 | 43.80547 | 11.61794 | 36064 ft | 415 kts | 295° |
| 2026-04-28 11:39 | 43.83140 | 11.54666 | 36060 ft | 415 kts | 295° |
| 2026-04-28 11:39 | 43.85736 | 11.47513 | 36057 ft | 415 kts | 295° |
| 2026-04-28 11:40 | 43.88306 | 11.40414 | 36067 ft | 415 kts | 295° |
| 2026-04-28 11:40 | 43.90891 | 11.33253 | 36074 ft | 415 kts | 295° |
| 2026-04-28 11:41 | 43.92193 | 11.29639 | 35609 ft | 421 kts | 295° |
| 2026-04-28 11:41 | 43.93500 | 11.26007 | 35050 ft | 420 kts | 295° |
| 2026-04-28 11:41 | 43.94801 | 11.22386 | 34478 ft | 420 kts | 295° |
| 2026-04-28 11:41 | 43.96105 | 11.18753 | 33808 ft | 421 kts | 295° |
| 2026-04-28 11:42 | 43.97408 | 11.15116 | 33120 ft | 421 kts | 295° |
| 2026-04-28 11:42 | 43.98714 | 11.11468 | 32444 ft | 422 kts | 295° |
| 2026-04-28 11:42 | 44.00023 | 11.07809 | 31790 ft | 423 kts | 295° |
| 2026-04-28 11:42 | 44.01329 | 11.04152 | 31115 ft | 424 kts | 295° |
| 2026-04-28 11:43 | 44.02616 | 11.00466 | 30470 ft | 424 kts | 292° |
| 2026-04-28 11:43 | 44.03630 | 10.96618 | 29597 ft | 426 kts | 286° |
| 2026-04-28 11:43 | 44.04475 | 10.92668 | 28815 ft | 426 kts | 285° |
| 2026-04-28 11:43 | 44.05287 | 10.88721 | 28288 ft | 422 kts | 285° |
| 2026-04-28 11:44 | 44.06091 | 10.84813 | 27744 ft | 418 kts | 285° |
| 2026-04-28 11:44 | 44.06896 | 10.80956 | 27224 ft | 413 kts | 285° |
| 2026-04-28 11:44 | 44.07702 | 10.77136 | 26684 ft | 410 kts | 285° |
| 2026-04-28 11:44 | 44.08508 | 10.73349 | 26167 ft | 406 kts | 285° |
| 2026-04-28 11:45 | 44.09308 | 10.69600 | 25695 ft | 402 kts | 285° |
| 2026-04-28 11:45 | 44.10101 | 10.65887 | 25199 ft | 399 kts | 285° |
| 2026-04-28 11:45 | 44.10888 | 10.62197 | 24700 ft | 397 kts | 285° |
| 2026-04-28 11:45 | 44.11671 | 10.58521 | 24193 ft | 395 kts | 285° |
| 2026-04-28 11:46 | 44.12448 | 10.54862 | 23664 ft | 394 kts | 285° |
| 2026-04-28 11:46 | 44.13221 | 10.51215 | 23119 ft | 391 kts | 285° |
| 2026-04-28 11:46 | 44.13988 | 10.47595 | 22581 ft | 388 kts | 285° |
| 2026-04-28 11:46 | 44.14746 | 10.44007 | 22089 ft | 384 kts | 285° |
| 2026-04-28 11:47 | 44.15496 | 10.40455 | 21547 ft | 381 kts | 285° |
| 2026-04-28 11:47 | 44.16240 | 10.36921 | 21051 ft | 378 kts | 285° |
| 2026-04-28 11:47 | 44.16975 | 10.33417 | 20538 ft | 376 kts | 285° |
| 2026-04-28 11:47 | 44.17701 | 10.29920 | 19972 ft | 375 kts | 285° |
| 2026-04-28 11:48 | 44.18419 | 10.26444 | 19459 ft | 372 kts | 285° |
| 2026-04-28 11:48 | 44.19124 | 10.23028 | 18984 ft | 370 kts | 284° |
| 2026-04-28 11:48 | 44.19835 | 10.19583 | 18524 ft | 369 kts | 284° |
| 2026-04-28 11:48 | 44.20541 | 10.16156 | 17956 ft | 367 kts | 284° |
| 2026-04-28 11:49 | 44.21241 | 10.12752 | 17441 ft | 365 kts | 284° |
| 2026-04-28 11:49 | 44.21938 | 10.09362 | 16942 ft | 362 kts | 284° |
| 2026-04-28 11:49 | 44.22629 | 10.05994 | 16467 ft | 360 kts | 285° |
| 2026-04-28 11:49 | 44.23322 | 10.02645 | 15986 ft | 358 kts | 285° |
| 2026-04-28 11:50 | 44.24013 | 9.99312 | 15514 ft | 357 kts | 285° |
| 2026-04-28 11:50 | 44.24700 | 9.95998 | 15047 ft | 355 kts | 285° |
| 2026-04-28 11:50 | 44.25382 | 9.92702 | 14590 ft | 353 kts | 285° |
| 2026-04-28 11:50 | 44.26062 | 9.89409 | 14132 ft | 352 kts | 285° |
| 2026-04-28 11:51 | 44.26738 | 9.86128 | 13652 ft | 351 kts | 285° |
| 2026-04-28 11:51 | 44.27410 | 9.82860 | 13146 ft | 350 kts | 285° |
| 2026-04-28 11:51 | 44.28078 | 9.79605 | 12678 ft | 348 kts | 284° |
| 2026-04-28 11:51 | 44.28739 | 9.76381 | 12440 ft | 340 kts | 285° |
| 2026-04-28 11:52 | 44.29368 | 9.73299 | 12287 ft | 330 kts | 285° |
| 2026-04-28 11:52 | 44.29989 | 9.70263 | 12138 ft | 321 kts | 284° |
| 2026-04-28 11:52 | 44.30592 | 9.67315 | 12008 ft | 312 kts | 284° |
| 2026-04-28 11:52 | 44.31177 | 9.64448 | 11880 ft | 303 kts | 284° |
| 2026-04-28 11:53 | 44.31744 | 9.61660 | 11761 ft | 295 kts | 284° |
| 2026-04-28 11:53 | 44.32300 | 9.58951 | 11653 ft | 286 kts | 284° |
| 2026-04-28 11:53 | 44.32864 | 9.56327 | 11527 ft | 278 kts | 285° |
| 2026-04-28 11:53 | 44.33423 | 9.53785 | 11408 ft | 270 kts | 284° |
| 2026-04-28 11:54 | 44.33653 | 9.51249 | 11275 ft | 260 kts | 259° |
| 2026-04-28 11:54 | 44.33054 | 9.48939 | 11101 ft | 253 kts | 237° |
| 2026-04-28 11:54 | 44.31926 | 9.47117 | 10981 ft | 245 kts | 220° |
| 2026-04-28 11:54 | 44.30612 | 9.45661 | 10874 ft | 238 kts | 217° |
| 2026-04-28 11:55 | 44.29280 | 9.44322 | 10777 ft | 236 kts | 208° |
| 2026-04-28 11:55 | 44.27707 | 9.43801 | 10657 ft | 235 kts | 178° |
| 2026-04-28 11:55 | 44.26108 | 9.44383 | 10431 ft | 243 kts | 153° |
| 2026-04-28 11:55 | 44.24703 | 9.45683 | 10194 ft | 243 kts | 145° |
| 2026-04-28 11:56 | 44.23361 | 9.47116 | 9933 ft | 243 kts | 144° |
| 2026-04-28 11:56 | 44.21846 | 9.48062 | 9599 ft | 241 kts | 178° |
| 2026-04-28 11:56 | 44.20257 | 9.47575 | 9414 ft | 235 kts | 210° |
| 2026-04-28 11:56 | 44.18997 | 9.46148 | 9199 ft | 235 kts | 229° |
| 2026-04-28 11:57 | 44.17983 | 9.44352 | 8973 ft | 237 kts | 232° |
| 2026-04-28 11:57 | 44.16996 | 9.42493 | 8736 ft | 240 kts | 233° |
| 2026-04-28 11:57 | 44.16240 | 9.40427 | 8463 ft | 244 kts | 259° |
| 2026-04-28 11:57 | 44.16345 | 9.38132 | 8246 ft | 243 kts | 290° |
| 2026-04-28 11:58 | 44.17265 | 9.36195 | 8016 ft | 241 kts | 317° |
| 2026-04-28 11:58 | 44.18575 | 9.34754 | 7801 ft | 239 kts | 323° |
| 2026-04-28 11:58 | 44.19914 | 9.33373 | 7559 ft | 239 kts | 322° |
| 2026-04-28 11:58 | 44.21248 | 9.31987 | 7325 ft | 239 kts | 322° |
| 2026-04-28 11:59 | 44.22581 | 9.30602 | 7092 ft | 239 kts | 322° |
| 2026-04-28 11:59 | 44.23907 | 9.29210 | 6854 ft | 238 kts | 322° |
| 2026-04-28 11:59 | 44.25234 | 9.27811 | 6562 ft | 241 kts | 322° |
| 2026-04-28 11:59 | 44.26560 | 9.26409 | 6325 ft | 240 kts | 322° |
| 2026-04-28 12:00 | 44.27897 | 9.24995 | 6057 ft | 240 kts | 322° |
| 2026-04-28 12:00 | 44.29225 | 9.23589 | 5782 ft | 240 kts | 322° |
| 2026-04-28 12:00 | 44.30561 | 9.22177 | 5497 ft | 242 kts | 322° |
| 2026-04-28 12:00 | 44.31902 | 9.20758 | 5206 ft | 243 kts | 322° |
| 2026-04-28 12:01 | 44.33219 | 9.19287 | 4997 ft | 238 kts | 311° |
| 2026-04-28 12:01 | 44.34006 | 9.17327 | 4838 ft | 231 kts | 287° |
| 2026-04-28 12:01 | 44.34323 | 9.15912 | 4633 ft | 228 kts | 286° |
| 2026-04-28 12:01 | 44.34796 | 9.13823 | 4307 ft | 221 kts | 286° |
| 2026-04-28 12:02 | 44.35239 | 9.11813 | 3987 ft | 213 kts | 286° |
| 2026-04-28 12:02 | 44.35658 | 9.09882 | 3719 ft | 203 kts | 286° |
| 2026-04-28 12:02 | 44.36059 | 9.08031 | 3426 ft | 195 kts | 284° |
| 2026-04-28 12:02 | 44.36443 | 9.06252 | 3158 ft | 187 kts | 284° |
| 2026-04-28 12:03 | 44.36812 | 9.04550 | 2901 ft | 179 kts | 284° |
| 2026-04-28 12:03 | 44.37167 | 9.02916 | 2670 ft | 172 kts | 284° |
| 2026-04-28 12:03 | 44.37512 | 9.01319 | 2417 ft | 172 kts | 284° |
| 2026-04-28 12:03 | 44.37856 | 8.99733 | 2175 ft | 170 kts | 284° |
| 2026-04-28 12:04 | 44.38198 | 8.98157 | 1949 ft | 170 kts | 284° |
| 2026-04-28 12:04 | 44.38314 | 8.97622 | 1860 ft | 171 kts | 284° |
| 2026-04-28 12:04 | 44.38545 | 8.96562 | 1728 ft | 169 kts | 284° |
| 2026-04-28 12:04 | 44.38885 | 8.95000 | 1471 ft | 163 kts | 284° |
| 2026-04-28 12:05 | 44.39213 | 8.93491 | 1260 ft | 164 kts | 284° |
| 2026-04-28 12:05 | 44.39543 | 8.91976 | 1005 ft | 162 kts | 284° |
| 2026-04-28 12:05 | 44.39865 | 8.90498 | 794 ft | 156 kts | 284° |
| 2026-04-28 12:05 | 44.40204 | 8.89080 | 587 ft | 151 kts | 286° |
| 2026-04-28 12:06 | 44.40514 | 8.87697 | 373 ft | 147 kts | 283° |
| 2026-04-28 12:06 | 44.40783 | 8.86308 | 161 ft | 151 kts | 282° |
| 2026-04-28 12:06 | 44.41054 | 8.84900 | 25 ft | 142 kts | 283° |
| 2026-04-28 12:06 | 44.41286 | 8.83720 | 21 ft | 105 kts | 285° |
| 2026-04-28 12:07 | 44.41439 | 8.82938 | 20 ft | 62 kts | 285° |
| 2026-04-28 12:07 | 44.41513 | 8.82558 | 17 ft | 22 kts | 284° |
| 2026-04-28 12:07 | 44.41573 | 8.82476 | 16 ft | 11 kts | 6° |
| 2026-04-28 12:07 | 44.41643 | 8.82521 | 19 ft | 11 kts | 39° |
| 2026-04-28 12:08 | 44.41657 | 8.82619 | 19 ft | 11 kts | 107° |
| 2026-04-28 12:08 | 44.41635 | 8.82717 | 19 ft | 10 kts | 105° |
| 2026-04-28 12:08 | 44.41616 | 8.82814 | 19 ft | 10 kts | 106° |
| 2026-04-28 12:08 | 44.41598 | 8.82907 | 19 ft | 10 kts | 105° |
| 2026-04-28 12:09 | 44.41581 | 8.82998 | 20 ft | 10 kts | 105° |
| 2026-04-28 12:09 | 44.41560 | 8.83104 | 19 ft | 12 kts | 105° |
| 2026-04-28 12:09 | 44.41536 | 8.83231 | 19 ft | 15 kts | 105° |
| 2026-04-28 12:09 | 44.41506 | 8.83382 | 19 ft | 17 kts | 104° |
| 2026-04-28 12:10 | 44.41472 | 8.83552 | 19 ft | 19 kts | 106° |
| 2026-04-28 12:10 | 44.41435 | 8.83742 | 19 ft | 21 kts | 105° |
| 2026-04-28 12:10 | 44.41395 | 8.83948 | 21 ft | 23 kts | 105° |
| 2026-04-28 12:10 | 44.41351 | 8.84168 | 20 ft | 24 kts | 105° |
| 2026-04-28 12:11 | 44.41305 | 8.84403 | 19 ft | 26 kts | 105° |
| 2026-04-28 12:11 | 44.41257 | 8.84648 | 19 ft | 26 kts | 105° |
| 2026-04-28 12:11 | 44.41216 | 8.84860 | 19 ft | 14 kts | 105° |
| 2026-04-28 12:11 | 44.41257 | 8.84926 | 22 ft | 11 kts | 17° |
| 2026-04-28 12:12 | 44.41338 | 8.84962 | 20 ft | 13 kts | 40° |
| 2026-04-28 12:12 | 44.41330 | 8.85079 | 19 ft | 14 kts | 107° |
| 2026-04-28 12:12 | 44.41323 | 8.85116 | 20 ft | 2 kts | 105° |
| 2026-04-28 12:12 | 44.41315 | 8.85178 | 19 ft | 5 kts | 61° |
| 2026-04-28 12:13 | 44.41357 | 8.85204 | 19 ft | 5 kts | 15° |